Time;durP1;ratioP1;P1;durP2;ratioP2;P2;SDS_P1;SDS_P2;PMS_P1;PMS_P2;Temp;Humidity;BMP_temperature;BMP_pressure;BME280_temperature;BME280_humidity;BME280_pressure;Samples;Min_cycle;Max_cycle;Signal;HPM_P1;HPM_P2
2022/03/10 00:00:07;;;;;;;;;;;3.30;96.00;;;;;;5028976;28;19931;-80
2022/03/10 00:02:42;;;;;;;;;;;3.30;96.00;;;;;;5044704;28;19972;-80
2022/03/10 00:05:10;;;;;;;;;;;3.30;95.90;;;;;;5026749;28;20363;-79
2022/03/10 00:07:38;;;;;;;;;;;3.30;95.80;;;;;;5048670;28;20016;-78
2022/03/10 00:10:06;;;;;;;;;;;3.20;95.90;;;;;;5030737;28;19971;-77
2022/03/10 00:12:33;;;;;;;;;;;3.20;95.80;;;;;;5044151;28;19924;-79
2022/03/10 00:15:00;;;;;;;;;;;3.20;95.90;;;;;;5050262;28;20341;-79
2022/03/10 00:17:27;;;;;;;;;;;3.20;95.90;;;;;;5046346;28;19955;-79
2022/03/10 00:19:55;;;;;;;;;;;3.20;96.10;;;;;;5044756;28;19980;-78
2022/03/10 00:22:22;;;;;;;;;;;3.20;95.80;;;;;;5049517;28;19968;-79
2022/03/10 00:24:49;;;;;;;;;;;3.10;95.80;;;;;;5045785;28;19964;-80
2022/03/10 00:27:15;;;;;;;;;;;3.10;95.80;;;;;;5030478;28;19924;-80
2022/03/10 00:29:42;;;;;;;;;;;3.10;95.80;;;;;;5028506;28;20681;-80
2022/03/10 00:32:11;;;;;;;;;;;3.10;95.90;;;;;;5047039;28;20003;-79
2022/03/10 00:34:38;;;;;;;;;;;3.10;95.80;;;;;;5044002;28;19932;-77
2022/03/10 00:37:06;;;;;;;;;;;3.00;95.70;;;;;;5043740;28;19925;-79
2022/03/10 00:39:33;;;;;;;;;;;3.00;95.50;;;;;;5028479;28;19937;-79
2022/03/10 00:42:00;;;;;;;;;;;2.90;95.80;;;;;;5043947;28;20020;-78
2022/03/10 00:44:29;;;;;;;;;;;2.90;95.70;;;;;;5028357;28;20509;-79
2022/03/10 00:46:56;;;;;;;;;;;2.90;95.70;;;;;;5028940;28;20016;-78
2022/03/10 00:49:23;;;;;;;;;;;2.90;95.40;;;;;;5039931;28;19965;-81
2022/03/10 00:51:50;;;;;;;;;;;2.80;95.30;;;;;;5028525;28;19929;-80
2022/03/10 00:54:19;;;;;;;;;;;2.70;95.20;;;;;;5025693;28;20507;-79
2022/03/10 00:56:46;;;;;;;;;;;2.70;95.20;;;;;;5026563;28;19924;-79
2022/03/10 00:59:12;;;;;;;;;;;2.70;95.40;;;;;;5043548;28;19928;-77
2022/03/10 01:01:39;;;;;;;;;;;2.60;95.30;;;;;;5040134;28;19925;-79
2022/03/10 01:04:06;;;;;;;;;;;2.70;95.70;;;;;;5027364;28;19925;-79
2022/03/10 01:06:33;;;;;;;;;;;2.70;95.70;;;;;;5021879;28;19925;-79
2022/03/10 01:09:00;;;;;;;;;;;2.70;95.70;;;;;;5046984;28;19925;-78
2022/03/10 01:11:28;;;;;;;;;;;2.70;95.70;;;;;;5029191;28;19925;-79
2022/03/10 01:13:55;;;;;;;;;;;2.70;95.60;;;;;;5041920;28;20015;-80
2022/03/10 01:16:22;;;;;;;;;;;2.70;95.60;;;;;;5040628;28;19924;-78
2022/03/10 01:18:49;;;;;;;;;;;2.70;95.70;;;;;;5040864;28;20020;-79
2022/03/10 01:21:16;;;;;;;;;;;2.60;95.30;;;;;;5047726;28;19940;-77
2022/03/10 01:23:43;;;;;;;;;;;2.60;95.40;;;;;;5022960;28;19933;-77
2022/03/10 01:26:10;;;;;;;;;;;2.50;95.30;;;;;;5046591;28;19950;-77
2022/03/10 01:28:38;;;;;;;;;;;2.50;95.30;;;;;;5047536;28;19933;-77
2022/03/10 01:31:05;;;;;;;;;;;2.50;95.40;;;;;;5029727;28;19932;-77
2022/03/10 01:33:33;;;;;;;;;;;2.40;95.40;;;;;;5050664;28;19979;-78
2022/03/10 01:36:00;;;;;;;;;;;2.40;95.30;;;;;;5051141;28;19925;-77
2022/03/10 01:38:27;;;;;;;;;;;2.40;95.30;;;;;;5046889;28;19944;-78
2022/03/10 01:40:54;;;;;;;;;;;2.40;95.30;;;;;;5045201;28;19925;-77
2022/03/10 01:43:21;;;;;;;;;;;2.30;95.30;;;;;;5028803;28;19929;-76
2022/03/10 01:45:49;;;;;;;;;;;2.30;95.30;;;;;;5047811;28;20347;-77
2022/03/10 01:48:16;;;;;;;;;;;2.30;95.30;;;;;;5019712;28;19933;-76
2022/03/10 01:50:43;;;;;;;;;;;2.30;95.20;;;;;;5042732;28;19940;-77
2022/03/10 01:53:10;;;;;;;;;;;2.30;95.30;;;;;;5042794;28;19925;-76
2022/03/10 01:55:38;;;;;;;;;;;2.30;95.30;;;;;;5031437;28;19928;-77
2022/03/10 01:58:05;;;;;;;;;;;2.30;95.40;;;;;;5041929;28;19937;-77
2022/03/10 02:00:32;;;;;;;;;;;2.30;95.30;;;;;;5024349;28;19925;-77
2022/03/10 02:03:01;;;;;;;;;;;2.20;95.30;;;;;;5027776;28;19937;-77
2022/03/10 02:05:30;;;;;;;;;;;2.20;95.30;;;;;;5028356;28;19948;-77
2022/03/10 02:10:42;;;;;;;;;;;2.30;95.40;;;;;;5043294;28;20392;-77
2022/03/10 02:13:08;;;;;;;;;;;2.20;95.40;;;;;;5037260;28;20015;-76
2022/03/10 02:18:21;;;;;;;;;;;2.20;95.40;;;;;;5043185;28;19933;-77
2022/03/10 02:20:48;;;;;;;;;;;2.10;95.40;;;;;;5025370;28;19968;-77
2022/03/10 02:23:17;;;;;;;;;;;2.20;95.40;;;;;;5022419;28;19932;-77
2022/03/10 02:25:44;;;;;;;;;;;2.20;95.40;;;;;;5023218;28;19933;-76
2022/03/10 02:28:11;;;;;;;;;;;2.10;95.40;;;;;;5030073;28;19929;-77
2022/03/10 02:30:38;;;;;;;;;;;2.10;95.40;;;;;;5040223;28;19999;-77
2022/03/10 02:33:05;;;;;;;;;;;2.10;95.40;;;;;;5031396;28;20285;-77
2022/03/10 02:35:32;;;;;;;;;;;2.10;95.50;;;;;;5022497;28;19998;-77
2022/03/10 02:37:59;;;;;;;;;;;2.10;95.50;;;;;;5045072;28;19979;-77
2022/03/10 02:40:28;;;;;;;;;;;2.10;95.40;;;;;;5026100;28;19964;-77
2022/03/10 02:42:55;;;;;;;;;;;2.10;95.30;;;;;;5037702;28;19944;-76
2022/03/10 02:45:22;;;;;;;;;;;2.00;95.30;;;;;;5044490;28;19931;-77
2022/03/10 02:47:48;;;;;;;;;;;2.10;95.30;;;;;;5044244;28;20725;-77
2022/03/10 02:50:15;;;;;;;;;;;2.00;95.30;;;;;;5026843;28;19960;-76
2022/03/10 02:52:43;;;;;;;;;;;2.00;95.30;;;;;;5023247;28;19931;-77
2022/03/10 02:55:10;;;;;;;;;;;2.00;95.20;;;;;;5042663;28;19953;-77
2022/03/10 02:57:38;;;;;;;;;;;2.00;95.20;;;;;;5044549;28;19925;-76
2022/03/10 03:00:08;;;;;;;;;;;2.00;95.30;;;;;;5042677;28;19951;-77
2022/03/10 03:02:35;;;;;;;;;;;1.90;95.20;;;;;;5043467;28;19925;-77
2022/03/10 03:05:02;;;;;;;;;;;1.90;95.20;;;;;;5024607;28;19936;-77
2022/03/10 03:07:28;;;;;;;;;;;2.00;95.20;;;;;;5044756;28;20302;-77
2022/03/10 03:09:55;;;;;;;;;;;1.90;95.20;;;;;;5023289;28;20795;-77
2022/03/10 03:12:22;;;;;;;;;;;2.00;95.20;;;;;;5026314;28;20308;-77
2022/03/10 03:14:51;;;;;;;;;;;1.90;95.20;;;;;;5043948;28;19929;-76
2022/03/10 03:17:18;;;;;;;;;;;1.90;95.20;;;;;;5043325;28;19925;-77
2022/03/10 03:19:44;;;;;;;;;;;1.90;95.20;;;;;;5044679;28;20113;-77
2022/03/10 03:22:11;;;;;;;;;;;1.80;95.20;;;;;;5026760;28;19925;-77
2022/03/10 03:24:38;;;;;;;;;;;1.80;95.20;;;;;;5043798;28;19932;-77
2022/03/10 03:27:05;;;;;;;;;;;1.80;95.20;;;;;;5043986;28;20522;-77
2022/03/10 03:29:32;;;;;;;;;;;1.80;95.20;;;;;;5023692;28;19932;-77
2022/03/10 03:32:01;;;;;;;;;;;1.80;95.20;;;;;;5043110;28;20016;-77
2022/03/10 03:34:28;;;;;;;;;;;1.70;95.30;;;;;;5025765;28;20568;-77
2022/03/10 03:36:55;;;;;;;;;;;1.70;95.20;;;;;;5047396;28;19925;-77
2022/03/10 03:39:21;;;;;;;;;;;1.70;95.30;;;;;;5029634;28;20561;-77
2022/03/10 03:41:49;;;;;;;;;;;1.70;95.20;;;;;;5038407;28;19929;-77
2022/03/10 03:44:16;;;;;;;;;;;1.70;95.20;;;;;;5045694;28;19925;-77
2022/03/10 03:46:42;;;;;;;;;;;1.70;95.20;;;;;;5046346;28;19968;-77
2022/03/10 03:49:11;;;;;;;;;;;1.70;95.20;;;;;;5025552;28;19943;-77
2022/03/10 03:51:38;;;;;;;;;;;1.60;95.10;;;;;;5043265;28;19974;-76
2022/03/10 03:54:07;;;;;;;;;;;1.60;95.10;;;;;;5043081;28;19935;-76
2022/03/10 03:56:34;;;;;;;;;;;1.60;95.20;;;;;;5024156;28;19964;-77
2022/03/10 03:59:01;;;;;;;;;;;1.60;95.20;;;;;;5025092;28;19933;-77
2022/03/10 04:01:29;;;;;;;;;;;1.60;95.20;;;;;;5033094;28;19925;-76
2022/03/10 04:03:56;;;;;;;;;;;1.60;95.10;;;;;;5046611;28;19940;-76
2022/03/10 04:06:24;;;;;;;;;;;1.60;95.10;;;;;;5047026;28;20216;-77
2022/03/10 04:08:52;;;;;;;;;;;1.50;95.20;;;;;;5040933;28;20004;-77
2022/03/10 04:11:19;;;;;;;;;;;1.50;95.20;;;;;;5047204;28;20388;-77
2022/03/10 04:13:46;;;;;;;;;;;1.50;95.10;;;;;;5030108;28;19933;-77
2022/03/10 04:16:13;;;;;;;;;;;1.50;95.10;;;;;;5048166;28;19944;-77
2022/03/10 04:18:39;;;;;;;;;;;1.50;95.20;;;;;;5047504;28;19924;-76
2022/03/10 04:21:06;;;;;;;;;;;1.40;95.10;;;;;;5048965;28;19999;-77
2022/03/10 04:23:35;;;;;;;;;;;1.50;95.20;;;;;;5023747;28;20015;-77
2022/03/10 04:26:01;;;;;;;;;;;1.50;95.20;;;;;;5029629;28;19968;-77
2022/03/10 04:28:28;;;;;;;;;;;1.50;95.20;;;;;;5022183;28;19932;-76
2022/03/10 04:30:55;;;;;;;;;;;1.50;95.20;;;;;;5028167;28;19925;-77
2022/03/10 04:33:22;;;;;;;;;;;1.50;95.20;;;;;;5048940;28;20332;-77
2022/03/10 04:35:50;;;;;;;;;;;1.50;95.20;;;;;;5046746;28;19924;-76
2022/03/10 04:38:17;;;;;;;;;;;1.40;95.20;;;;;;5042834;28;19933;-77
2022/03/10 04:40:45;;;;;;;;;;;1.40;95.20;;;;;;5031970;28;19925;-77
2022/03/10 04:43:12;;;;;;;;;;;1.50;95.20;;;;;;5040936;28;19932;-77
2022/03/10 04:45:39;;;;;;;;;;;1.40;95.20;;;;;;5047248;28;19925;-77
2022/03/10 04:48:07;;;;;;;;;;;1.40;95.30;;;;;;5044321;28;20639;-76
2022/03/10 04:50:34;;;;;;;;;;;1.40;95.20;;;;;;5041786;28;19928;-77
2022/03/10 04:53:01;;;;;;;;;;;1.40;95.30;;;;;;5045624;28;20396;-76
2022/03/10 04:55:28;;;;;;;;;;;1.40;95.30;;;;;;5027223;28;19925;-76
2022/03/10 04:57:56;;;;;;;;;;;1.40;95.30;;;;;;5047837;28;19936;-77
2022/03/10 05:00:23;;;;;;;;;;;1.30;95.30;;;;;;5041563;28;20404;-76
2022/03/10 05:02:50;;;;;;;;;;;1.40;95.30;;;;;;5040816;28;20408;-77
2022/03/10 05:05:18;;;;;;;;;;;1.40;95.30;;;;;;5025666;28;19925;-77
2022/03/10 05:07:45;;;;;;;;;;;1.30;95.30;;;;;;5021589;28;19925;-76
2022/03/10 05:10:13;;;;;;;;;;;1.30;95.30;;;;;;5038640;28;19929;-75
2022/03/10 05:12:47;;;;;;;;;;;1.30;95.30;;;;;;5040577;28;19925;-77
2022/03/10 05:15:17;;;;;;;;;;;1.30;95.30;;;;;;5046546;28;20343;-75
2022/03/10 05:17:44;;;;;;;;;;;1.30;95.30;;;;;;5046153;28;19943;-77
2022/03/10 05:20:11;;;;;;;;;;;1.30;95.30;;;;;;5041368;28;19968;-76
2022/03/10 05:22:42;;;;;;;;;;;1.30;95.40;;;;;;5055138;28;19959;-77
2022/03/10 05:25:09;;;;;;;;;;;1.30;95.40;;;;;;5037050;28;20270;-79
2022/03/10 05:27:36;;;;;;;;;;;1.30;95.30;;;;;;5044206;28;20015;-80
2022/03/10 05:30:04;;;;;;;;;;;1.20;95.30;;;;;;5042855;28;20027;-79
2022/03/10 05:32:33;;;;;;;;;;;1.20;95.30;;;;;;5041047;28;19943;-79
2022/03/10 05:35:01;;;;;;;;;;;1.20;95.40;;;;;;5014997;28;20415;-79
2022/03/10 05:37:28;;;;;;;;;;;1.20;95.40;;;;;;5039360;28;20730;-79
2022/03/10 05:39:55;;;;;;;;;;;1.20;95.40;;;;;;5039115;28;20348;-79
2022/03/10 05:42:24;;;;;;;;;;;1.20;95.30;;;;;;5038610;28;19925;-80
2022/03/10 05:44:51;;;;;;;;;;;1.10;95.30;;;;;;5034993;28;19955;-79
2022/03/10 05:47:18;;;;;;;;;;;1.00;95.30;;;;;;5037968;28;19929;-77
2022/03/10 05:49:47;;;;;;;;;;;1.00;95.30;;;;;;5038364;28;19924;-79
2022/03/10 05:52:14;;;;;;;;;;;0.90;95.30;;;;;;5037667;28;19925;-81
2022/03/10 05:54:41;;;;;;;;;;;0.90;95.20;;;;;;5037810;28;19943;-79
2022/03/10 05:57:08;;;;;;;;;;;0.90;95.20;;;;;;5024573;28;20406;-80
2022/03/10 05:59:35;;;;;;;;;;;0.90;95.30;;;;;;5037879;28;20876;-80
2022/03/10 06:02:02;;;;;;;;;;;0.80;95.20;;;;;;5037525;28;19933;-79
2022/03/10 06:04:29;;;;;;;;;;;0.80;95.20;;;;;;5016637;28;19925;-80
2022/03/10 06:06:57;;;;;;;;;;;0.80;95.30;;;;;;5032763;28;20640;-80
2022/03/10 06:09:24;;;;;;;;;;;0.80;95.40;;;;;;5019777;28;19987;-80
2022/03/10 06:11:51;;;;;;;;;;;0.80;95.30;;;;;;5034948;28;19933;-80
2022/03/10 06:14:19;;;;;;;;;;;0.70;95.30;;;;;;5034656;28;19999;-80
2022/03/10 06:16:46;;;;;;;;;;;0.70;95.40;;;;;;5036269;28;19925;-80
2022/03/10 06:19:13;;;;;;;;;;;0.70;95.50;;;;;;5023440;28;20370;-80
2022/03/10 06:21:40;;;;;;;;;;;0.70;95.40;;;;;;5033514;28;19925;-80
2022/03/10 06:24:08;;;;;;;;;;;0.70;95.50;;;;;;5028025;28;19933;-80
2022/03/10 06:26:36;;;;;;;;;;;0.80;95.70;;;;;;5012812;28;20031;-80
2022/03/10 06:29:04;;;;;;;;;;;0.70;95.50;;;;;;5017619;28;19955;-80
2022/03/10 06:31:31;;;;;;;;;;;0.70;95.60;;;;;;5034747;28;21871;-80
2022/03/10 06:33:58;;;;;;;;;;;0.70;95.50;;;;;;5011776;28;19925;-80
2022/03/10 06:36:25;;;;;;;;;;;0.70;95.50;;;;;;5035624;28;19964;-80
2022/03/10 06:38:52;;;;;;;;;;;0.70;95.50;;;;;;5036703;28;19928;-79
2022/03/10 06:41:21;;;;;;;;;;;0.70;95.50;;;;;;5034997;28;19924;-78
2022/03/10 06:43:48;;;;;;;;;;;0.70;95.60;;;;;;5032017;28;19932;-80
2022/03/10 06:46:15;;;;;;;;;;;0.70;95.60;;;;;;5033491;28;21609;-80
2022/03/10 06:48:42;;;;;;;;;;;0.70;95.80;;;;;;5030615;28;20530;-80
2022/03/10 06:51:08;;;;;;;;;;;0.70;95.50;;;;;;5033499;28;19928;-80
2022/03/10 06:53:35;;;;;;;;;;;0.70;95.50;;;;;;5017431;28;19933;-79
2022/03/10 06:56:02;;;;;;;;;;;0.90;96.10;;;;;;5035543;28;19924;-76
2022/03/10 06:58:30;;;;;;;;;;;0.90;95.50;;;;;;5026156;28;20034;-77
2022/03/10 07:00:57;;;;;;;;;;;0.90;95.40;;;;;;5038211;28;20454;-77
2022/03/10 07:03:24;;;;;;;;;;;0.80;95.30;;;;;;5044428;28;19932;-77
2022/03/10 07:05:51;;;;;;;;;;;0.80;95.40;;;;;;5036580;28;19933;-77
2022/03/10 07:08:18;;;;;;;;;;;0.80;95.40;;;;;;5042774;28;19935;-76
2022/03/10 07:10:45;;;;;;;;;;;0.80;95.40;;;;;;5017374;28;19933;-77
2022/03/10 07:13:12;;;;;;;;;;;0.80;95.50;;;;;;5041883;28;19929;-77
2022/03/10 07:15:40;;;;;;;;;;;0.80;95.50;;;;;;5023906;28;20312;-78
2022/03/10 07:18:08;;;;;;;;;;;0.90;95.60;;;;;;5038792;28;19940;-77
2022/03/10 07:20:34;;;;;;;;;;;0.80;95.50;;;;;;5018822;28;19940;-78
2022/03/10 07:23:01;;;;;;;;;;;0.90;95.50;;;;;;5039497;28;19929;-77
2022/03/10 07:25:28;;;;;;;;;;;0.90;95.50;;;;;;5036048;28;19925;-78
2022/03/10 07:27:55;;;;;;;;;;;0.90;95.50;;;;;;5038317;28;19932;-77
2022/03/10 07:30:22;;;;;;;;;;;0.90;95.50;;;;;;5039538;28;19933;-78
2022/03/10 07:32:51;;;;;;;;;;;0.90;95.60;;;;;;5040143;28;19924;-78
2022/03/10 07:35:18;;;;;;;;;;;0.90;95.50;;;;;;5022417;28;20283;-78
2022/03/10 07:37:46;;;;;;;;;;;0.90;95.50;;;;;;5041315;28;20399;-78
2022/03/10 07:40:14;;;;;;;;;;;0.90;95.50;;;;;;5039756;28;19932;-78
2022/03/10 07:42:41;;;;;;;;;;;0.90;95.50;;;;;;5024825;28;20019;-78
2022/03/10 07:45:09;;;;;;;;;;;0.90;95.50;;;;;;5045576;28;19977;-79
2022/03/10 07:47:36;;;;;;;;;;;0.90;95.50;;;;;;5020083;28;19937;-78
2022/03/10 07:50:06;;;;;;;;;;;0.90;95.50;;;;;;5022491;28;19940;-78
2022/03/10 07:52:33;;;;;;;;;;;0.90;95.50;;;;;;5040106;28;19925;-78
2022/03/10 07:55:00;;;;;;;;;;;1.00;95.60;;;;;;5042586;28;19925;-78
2022/03/10 07:57:27;;;;;;;;;;;1.00;95.60;;;;;;5028029;28;20269;-79
2022/03/10 07:59:54;;;;;;;;;;;1.00;95.60;;;;;;5043389;28;19929;-79
2022/03/10 08:02:21;;;;;;;;;;;1.00;95.60;;;;;;5044153;28;19933;-79
2022/03/10 08:04:48;;;;;;;;;;;1.00;95.60;;;;;;5045602;28;19933;-77
2022/03/10 08:07:16;;;;;;;;;;;1.10;95.90;;;;;;5040241;28;20055;-77
2022/03/10 08:09:43;;;;;;;;;;;1.00;95.70;;;;;;5022729;28;19951;-78
2022/03/10 08:12:10;;;;;;;;;;;1.00;95.70;;;;;;5019560;28;19933;-78
2022/03/10 08:14:37;;;;;;;;;;;1.00;95.70;;;;;;5027334;28;19932;-78
2022/03/10 08:17:04;;;;;;;;;;;1.00;95.60;;;;;;5026647;28;19932;-77
2022/03/10 08:19:31;;;;;;;;;;;1.00;95.70;;;;;;5023474;28;19940;-77
2022/03/10 08:21:59;;;;;;;;;;;1.10;95.80;;;;;;5041403;28;19929;-77
2022/03/10 08:24:28;;;;;;;;;;;1.10;95.80;;;;;;5026492;28;19978;-76
2022/03/10 08:26:56;;;;;;;;;;;1.10;95.70;;;;;;5044936;28;19929;-77
2022/03/10 08:29:23;;;;;;;;;;;1.10;95.80;;;;;;5023838;28;20710;-77
2022/03/10 08:31:50;;;;;;;;;;;1.10;95.80;;;;;;5041057;28;19925;-77
2022/03/10 08:34:17;;;;;;;;;;;1.10;95.90;;;;;;5023615;28;20384;-77
2022/03/10 08:36:44;;;;;;;;;;;1.10;95.80;;;;;;5043289;28;19935;-77
2022/03/10 08:39:12;;;;;;;;;;;1.20;95.90;;;;;;5042373;28;19947;-77
2022/03/10 08:41:40;;;;;;;;;;;1.20;96.00;;;;;;5040274;28;20062;-78
2022/03/10 08:44:10;;;;;;;;;;;1.10;96.10;;;;;;5025260;28;19932;-77
2022/03/10 08:46:37;;;;;;;;;;;1.20;96.10;;;;;;5043623;28;19925;-77
2022/03/10 08:49:04;;;;;;;;;;;1.20;96.20;;;;;;5024464;28;20472;-77
2022/03/10 08:51:31;;;;;;;;;;;1.20;96.20;;;;;;5025437;28;20346;-77
2022/03/10 08:53:58;;;;;;;;;;;1.20;96.30;;;;;;5026755;28;19931;-77
2022/03/10 08:56:25;;;;;;;;;;;1.20;96.40;;;;;;5039800;28;19929;-77
2022/03/10 08:58:53;;;;;;;;;;;1.30;96.30;;;;;;5044415;28;19933;-77
2022/03/10 09:01:20;;;;;;;;;;;1.30;96.30;;;;;;5042732;28;19924;-78
2022/03/10 09:03:47;;;;;;;;;;;1.30;96.30;;;;;;5041290;28;19933;-77
2022/03/10 09:06:16;;;;;;;;;;;1.30;96.40;;;;;;5038565;28;19925;-77
2022/03/10 09:08:48;;;;;;;;;;;1.40;96.30;;;;;;5026946;28;19928;-78
2022/03/10 09:11:15;;;;;;;;;;;1.40;96.40;;;;;;5025259;28;19925;-77
2022/03/10 09:13:48;;;;;;;;;;;1.50;96.40;;;;;;5038876;28;19925;-78
2022/03/10 09:16:16;;;;;;;;;;;1.40;96.40;;;;;;5051668;28;19968;-78
2022/03/10 09:18:45;;;;;;;;;;;1.40;96.40;;;;;;5047379;28;20835;-78
2022/03/10 09:21:11;;;;;;;;;;;1.50;96.50;;;;;;5040733;28;20016;-78
2022/03/10 09:23:38;;;;;;;;;;;1.50;96.50;;;;;;5007035;28;19937;-78
2022/03/10 09:26:05;;;;;;;;;;;1.50;96.60;;;;;;5040518;28;19960;-78
2022/03/10 09:28:32;;;;;;;;;;;1.60;96.60;;;;;;5039409;28;19925;-78
2022/03/10 09:31:00;;;;;;;;;;;1.60;96.60;;;;;;5041949;28;20770;-77
2022/03/10 09:33:28;;;;;;;;;;;1.60;96.70;;;;;;5020456;28;19928;-78
2022/03/10 09:35:57;;;;;;;;;;;1.60;96.80;;;;;;5041407;28;20027;-78
2022/03/10 09:38:24;;;;;;;;;;;1.60;96.80;;;;;;5026441;28;19924;-77
2022/03/10 09:40:53;;;;;;;;;;;1.70;96.80;;;;;;5036464;28;20032;-77
2022/03/10 09:43:22;;;;;;;;;;;1.80;96.80;;;;;;5041423;28;19925;-78
2022/03/10 09:45:49;;;;;;;;;;;1.70;96.80;;;;;;5043178;28;19932;-78
2022/03/10 09:48:16;;;;;;;;;;;1.80;96.90;;;;;;5043177;28;19925;-77
2022/03/10 09:50:48;;;;;;;;;;;1.80;96.90;;;;;;5040326;28;19932;-78
2022/03/10 09:53:15;;;;;;;;;;;1.90;96.90;;;;;;5039671;28;20133;-77
2022/03/10 09:55:42;;;;;;;;;;;1.90;96.90;;;;;;5041908;28;20026;-77
2022/03/10 09:58:10;;;;;;;;;;;2.00;96.90;;;;;;5037736;28;19933;-78
2022/03/10 10:00:36;;;;;;;;;;;2.00;97.00;;;;;;5038935;28;20587;-77
2022/03/10 10:03:03;;;;;;;;;;;2.00;97.10;;;;;;5021216;28;20651;-77
2022/03/10 10:05:32;;;;;;;;;;;2.00;97.10;;;;;;5041544;28;20419;-78
2022/03/10 10:08:05;;;;;;;;;;;2.00;97.20;;;;;;5037488;28;19932;-77
2022/03/10 10:10:33;;;;;;;;;;;2.10;97.20;;;;;;5040399;28;19936;-78
2022/03/10 10:13:04;;;;;;;;;;;2.20;97.30;;;;;;5035033;28;19925;-78
2022/03/10 10:15:33;;;;;;;;;;;2.20;97.30;;;;;;5042089;28;20369;-78
2022/03/10 10:18:00;;;;;;;;;;;2.20;97.30;;;;;;5020363;28;19932;-77
2022/03/10 10:20:30;;;;;;;;;;;2.20;97.40;;;;;;5037724;28;20020;-78
2022/03/10 10:23:15;;;;;;;;;;;2.30;97.60;;;;;;5022099;28;19929;-78
2022/03/10 10:25:50;;;;;;;;;;;2.30;97.60;;;;;;5038546;28;19941;-79
2022/03/10 10:28:27;;;;;;;;;;;2.30;97.60;;;;;;5038889;28;19936;-78
2022/03/10 10:30:55;;;;;;;;;;;2.40;97.70;;;;;;5041378;28;19929;-77
2022/03/10 10:33:22;;;;;;;;;;;2.40;97.70;;;;;;5019634;28;19925;-77
2022/03/10 10:35:49;;;;;;;;;;;2.40;97.70;;;;;;5038940;28;19936;-77
2022/03/10 10:38:29;;;;;;;;;;;2.40;97.70;;;;;;5018909;28;19929;-77
2022/03/10 10:41:10;;;;;;;;;;;2.50;97.70;;;;;;5038843;28;19979;-77
2022/03/10 10:43:42;;;;;;;;;;;2.50;97.80;;;;;;5039597;28;19933;-78
2022/03/10 10:46:10;;;;;;;;;;;2.60;97.80;;;;;;5043457;28;19928;-77
2022/03/10 10:48:45;;;;;;;;;;;2.60;97.90;;;;;;5026411;28;19967;-76
2022/03/10 10:51:12;;;;;;;;;;;2.60;97.90;;;;;;5044665;28;19952;-76
2022/03/10 10:53:40;;;;;;;;;;;2.70;97.90;;;;;;5044180;28;20384;-77
2022/03/10 10:56:07;;;;;;;;;;;2.70;98.00;;;;;;5031657;28;20026;-77
2022/03/10 10:58:34;;;;;;;;;;;2.70;98.00;;;;;;5041296;28;19931;-77
2022/03/10 11:01:02;;;;;;;;;;;2.80;98.10;;;;;;5042479;28;19925;-77
2022/03/10 11:03:31;;;;;;;;;;;2.80;98.00;;;;;;5020989;28;20469;-77
2022/03/10 11:05:59;;;;;;;;;;;2.80;98.00;;;;;;5042404;28;20512;-78
2022/03/10 11:08:28;;;;;;;;;;;2.90;98.00;;;;;;5039844;28;19931;-77
2022/03/10 11:10:55;;;;;;;;;;;3.00;98.10;;;;;;5037231;28;19931;-76
2022/03/10 11:13:22;;;;;;;;;;;3.00;98.00;;;;;;5040114;28;19932;-77
2022/03/10 11:15:50;;;;;;;;;;;3.00;98.10;;;;;;5042172;28;19933;-77
2022/03/10 11:18:21;;;;;;;;;;;3.10;98.00;;;;;;5043188;28;20166;-77
2022/03/10 11:20:50;;;;;;;;;;;3.10;98.20;;;;;;5041177;28;19964;-77
2022/03/10 11:23:21;;;;;;;;;;;3.10;98.20;;;;;;5023635;28;19924;-76
2022/03/10 11:25:53;;;;;;;;;;;3.20;98.20;;;;;;5041607;28;19970;-77
2022/03/10 11:28:22;;;;;;;;;;;3.20;98.20;;;;;;5041603;28;20349;-77
2022/03/10 11:30:50;;;;;;;;;;;3.20;98.20;;;;;;5023760;28;19980;-77
2022/03/10 11:33:18;;;;;;;;;;;3.30;98.50;;;;;;5018922;28;19925;-77
2022/03/10 11:35:46;;;;;;;;;;;3.30;98.20;;;;;;5019892;28;19928;-77
2022/03/10 11:38:13;;;;;;;;;;;3.40;98.20;;;;;;5026755;28;20027;-77
2022/03/10 11:40:44;;;;;;;;;;;3.40;98.10;;;;;;5023622;28;19978;-78
2022/03/10 11:43:12;;;;;;;;;;;3.40;98.30;;;;;;5045771;28;19928;-78
2022/03/10 11:45:39;;;;;;;;;;;3.50;98.20;;;;;;5042388;28;19971;-77
2022/03/10 11:48:30;;;;;;;;;;;3.50;98.30;;;;;;5040275;28;20788;-78
2022/03/10 11:50:58;;;;;;;;;;;3.50;98.20;;;;;;5016065;28;19932;-78
2022/03/10 11:53:25;;;;;;;;;;;3.60;98.20;;;;;;5045640;28;19971;-78
2022/03/10 11:55:53;;;;;;;;;;;3.60;98.40;;;;;;5026039;28;19933;-78
2022/03/10 11:58:20;;;;;;;;;;;3.60;98.50;;;;;;5040401;28;19987;-77
2022/03/10 12:00:49;;;;;;;;;;;3.70;98.50;;;;;;5039649;28;19929;-78
2022/03/10 12:03:20;;;;;;;;;;;3.70;98.50;;;;;;5045388;28;19932;-77
2022/03/10 12:05:50;;;;;;;;;;;3.70;98.90;;;;;;5040572;28;20499;-77
2022/03/10 12:08:19;;;;;;;;;;;3.80;98.50;;;;;;5016548;28;22099;-77
2022/03/10 12:10:47;;;;;;;;;;;3.80;98.90;;;;;;5013024;28;20019;-78
2022/03/10 12:13:28;;;;;;;;;;;3.80;98.60;;;;;;5035842;28;19928;-78
2022/03/10 12:15:55;;;;;;;;;;;3.90;98.80;;;;;;5035054;28;19975;-77
2022/03/10 12:18:24;;;;;;;;;;;4.00;98.70;;;;;;5037893;28;20004;-78
2022/03/10 12:20:53;;;;;;;;;;;4.00;99.00;;;;;;5019892;28;20015;-77
2022/03/10 12:23:23;;;;;;;;;;;4.10;98.60;;;;;;5029534;28;20388;-77
2022/03/10 12:25:52;;;;;;;;;;;4.10;98.70;;;;;;5027189;28;20156;-78
2022/03/10 12:28:27;;;;;;;;;;;4.10;99.10;;;;;;5037515;28;19964;-77
2022/03/10 12:31:01;;;;;;;;;;;4.20;98.90;;;;;;5031421;28;19940;-78
2022/03/10 12:33:29;;;;;;;;;;;4.20;99.00;;;;;;5036703;28;21324;-77
2022/03/10 12:35:56;;;;;;;;;;;4.20;98.90;;;;;;5037412;28;19958;-77
2022/03/10 12:38:38;;;;;;;;;;;4.30;98.90;;;;;;5036921;28;19929;-78
2022/03/10 12:41:05;;;;;;;;;;;4.30;98.60;;;;;;5038334;28;19936;-78
2022/03/10 12:43:32;;;;;;;;;;;4.40;99.10;;;;;;5019864;28;19929;-77
2022/03/10 12:45:59;;;;;;;;;;;4.40;98.60;;;;;;5020150;28;19932;-78
2022/03/10 12:48:27;;;;;;;;;;;4.50;98.80;;;;;;5024410;28;20332;-78
2022/03/10 12:50:55;;;;;;;;;;;4.50;98.30;;;;;;5018653;28;19940;-78
2022/03/10 12:53:22;;;;;;;;;;;4.50;98.90;;;;;;5038334;28;19929;-78
2022/03/10 12:55:56;;;;;;;;;;;4.50;98.60;;;;;;5038752;28;19933;-78
2022/03/10 12:58:28;;;;;;;;;;;4.60;98.30;;;;;;5017999;28;19932;-78
2022/03/10 13:01:04;;;;;;;;;;;4.60;98.30;;;;;;5037749;28;19925;-78
2022/03/10 13:03:34;;;;;;;;;;;4.60;98.00;;;;;;5033944;28;19931;-78
2022/03/10 13:06:02;;;;;;;;;;;4.70;97.20;;;;;;5024108;28;20015;-78
2022/03/10 13:08:30;;;;;;;;;;;4.80;97.80;;;;;;5015203;28;19932;-77
2022/03/10 13:11:01;;;;;;;;;;;4.80;98.50;;;;;;5041288;28;19932;-79
2022/03/10 13:13:28;;;;;;;;;;;4.80;98.40;;;;;;5039895;28;19929;-79
2022/03/10 13:15:59;;;;;;;;;;;4.80;98.40;;;;;;5035627;28;20331;-79
2022/03/10 13:18:26;;;;;;;;;;;4.80;98.60;;;;;;5040413;28;19929;-80
2022/03/10 13:20:57;;;;;;;;;;;4.90;98.80;;;;;;5019117;28;19929;-79
2022/03/10 13:23:25;;;;;;;;;;;4.90;98.90;;;;;;5034663;28;20079;-79
2022/03/10 13:25:52;;;;;;;;;;;4.90;98.70;;;;;;5036062;28;19933;-79
2022/03/10 13:28:25;;;;;;;;;;;5.10;95.70;;;;;;5007306;28;20023;-79
2022/03/10 13:30:52;;;;;;;;;;;5.50;95.90;;;;;;5033005;28;19925;-80
2022/03/10 13:33:21;;;;;;;;;;;5.70;94.20;;;;;;5035132;28;19933;-78
2022/03/10 13:35:50;;;;;;;;;;;6.20;92.10;;;;;;5031644;28;20474;-78
2022/03/10 13:38:18;;;;;;;;;;;6.60;90.90;;;;;;5017707;28;20402;-78
2022/03/10 13:40:46;;;;;;;;;;;6.40;93.10;;;;;;5036159;28;19936;-79
2022/03/10 13:43:22;;;;;;;;;;;6.10;94.50;;;;;;5020691;28;20320;-78
2022/03/10 13:45:49;;;;;;;;;;;6.00;95.70;;;;;;5038040;28;19928;-79
2022/03/10 13:48:18;;;;;;;;;;;5.90;95.60;;;;;;5037543;28;20015;-79
2022/03/10 13:50:45;;;;;;;;;;;5.90;96.20;;;;;;5021052;28;19968;-79
2022/03/10 13:53:12;;;;;;;;;;;5.80;96.50;;;;;;5019925;28;19933;-79
2022/03/10 13:55:44;;;;;;;;;;;5.90;96.60;;;;;;5026079;28;19963;-79
2022/03/10 13:58:11;;;;;;;;;;;5.90;97.00;;;;;;5024329;28;19925;-79
2022/03/10 14:00:41;;;;;;;;;;;5.90;96.50;;;;;;5019969;28;19940;-78
2022/03/10 14:03:09;;;;;;;;;;;6.00;96.50;;;;;;5037414;28;20577;-79
2022/03/10 14:05:40;;;;;;;;;;;6.00;96.50;;;;;;5019473;28;20510;-80
2022/03/10 14:08:13;;;;;;;;;;;6.00;96.60;;;;;;5037442;28;20441;-79
2022/03/10 14:10:42;;;;;;;;;;;6.10;95.70;;;;;;5036274;28;20451;-79
2022/03/10 14:13:12;;;;;;;;;;;6.20;95.40;;;;;;5038135;28;20016;-79
2022/03/10 14:15:45;;;;;;;;;;;6.20;96.30;;;;;;5036885;28;20259;-78
2022/03/10 14:18:13;;;;;;;;;;;6.20;96.50;;;;;;5014367;28;19925;-79
2022/03/10 18:12:27;;;;;;;;;;;7.50;81.30;;;;;;5480931;23;19939;-82
2022/03/10 18:14:54;;;;;;;;;;;7.50;81.30;;;;;;4919204;29;19936;-81
2022/03/10 18:17:21;;;;;;;;;;;7.50;84.00;;;;;;4919045;29;19924;-81
2022/03/10 18:19:48;;;;;;;;;;;7.40;83.70;;;;;;4915521;29;19927;-81
2022/03/10 18:22:15;;;;;;;;;;;7.40;83.30;;;;;;4909644;29;19958;-80
2022/03/10 18:24:43;;;;;;;;;;;7.40;83.10;;;;;;4912733;29;19932;-79
2022/03/10 18:27:10;;;;;;;;;;;7.40;83.70;;;;;;4915194;28;19978;-80
2022/03/10 18:29:40;;;;;;;;;;;7.30;83.90;;;;;;5003185;23;19956;-81
2022/03/10 18:32:07;;;;;;;;;;;7.30;83.90;;;;;;5117402;23;19913;-79